Time;durP1;ratioP1;P1;durP2;ratioP2;P2;SDS_P1;SDS_P2;PMS_P1;PMS_P2;Temp;Humidity;BMP_temperature;BMP_pressure;BME280_temperature;BME280_humidity;BME280_pressure;Samples;Min_cycle;Max_cycle;Signal;HPM_P1;HPM_P2
2022/03/27 00:00:51;;;;;;;;;;;;;;;;;;2096610;28;20404;-44
2022/03/27 00:01:52;;;;;;;;;;;;;;;;;;2097189;28;20352;-45
2022/03/27 00:02:53;;;;;;;;;;;;;;;;;;2096677;28;19955;-44
2022/03/27 00:03:54;;;;;;;;;;;;;;;;;;2096754;28;19929;-44
2022/03/27 00:04:55;;;;;;;;;;;;;;;;;;2096574;28;19924;-44
2022/03/27 00:05:57;;;;;;;;;;;;;;;;;;2096563;28;19936;-48
2022/03/27 00:06:58;;;;;;;;;;;;;;;;;;2096470;28;19929;-48
2022/03/27 00:07:59;;;;;;;;;;;;;;;;;;2096685;28;19932;-48
2022/03/27 00:09:00;;;;;;;;;;;;;;;;;;2096856;28;19924;-47
2022/03/27 00:10:01;;;;;;;;;;;;;;;;;;2096840;28;19946;-49
2022/03/27 00:12:22;;;;;;;;;;;;;;;;;;2096562;28;20404;-49
2022/03/27 00:13:23;;;;;;;;;;;;;;;;;;2096589;28;19932;-48
2022/03/27 00:14:24;;;;;;;;;;;;;;;;;;2096474;28;20027;-48
2022/03/27 00:15:25;;;;;;;;;;;;;;;;;;2096630;28;20006;-48
2022/03/27 00:16:26;;;;;;;;;;;;;;;;;;2096216;28;19928;-48
2022/03/27 00:17:29;;;;;;;;;;;;;;;;;;2096667;28;20300;-44
2022/03/27 00:18:30;;;;;;;;;;;;;;;;;;2089430;28;19932;-44
2022/03/27 00:19:31;;;;;;;;;;;;;;;;;;2096582;28;19994;-44
2022/03/27 00:20:32;;;;;;;;;;;;;;;;;;2096627;28;19932;-44
2022/03/27 00:21:33;;;;;;;;;;;;;;;;;;2097569;28;19925;-45
2022/03/27 00:22:34;;;;;;;;;;;;;;;;;;2096836;28;19924;-44
2022/03/27 00:23:35;;;;;;;;;;;;;;;;;;2096545;28;19925;-44
2022/03/27 00:24:36;;;;;;;;;;;;;;;;;;2096551;28;19986;-44
2022/03/27 00:25:37;;;;;;;;;;;;;;;;;;2095743;28;19933;-50
2022/03/27 00:26:38;;;;;;;;;;;;;;;;;;2096480;28;19933;-49
2022/03/27 00:27:39;;;;;;;;;;;;;;;;;;2096392;28;20404;-48
2022/03/27 00:28:41;;;;;;;;;;;;;;;;;;2096653;28;19924;-48
2022/03/27 00:29:42;;;;;;;;;;;;;;;;;;2097190;28;19925;-47
2022/03/27 00:30:43;;;;;;;;;;;;;;;;;;2097319;28;19931;-47
2022/03/27 00:31:44;;;;;;;;;;;;;;;;;;2097092;28;19932;-48
2022/03/27 00:32:45;;;;;;;;;;;;;;;;;;2096410;28;19931;-48
2022/03/27 00:33:46;;;;;;;;;;;;;;;;;;2096666;28;19924;-48
2022/03/27 00:34:48;;;;;;;;;;;;;;;;;;2096498;28;19935;-49
2022/03/27 00:35:49;;;;;;;;;;;;;;;;;;2095577;28;20497;-49
2022/03/27 00:36:50;;;;;;;;;;;;;;;;;;2096224;28;19947;-48
2022/03/27 00:37:52;;;;;;;;;;;;;;;;;;2096572;28;20421;-48
2022/03/27 00:38:52;;;;;;;;;;;;;;;;;;2096578;28;19929;-48
2022/03/27 00:39:53;;;;;;;;;;;;;;;;;;2096744;28;19925;-48
2022/03/27 00:40:54;;;;;;;;;;;;;;;;;;2097604;28;20294;-44
2022/03/27 00:41:56;;;;;;;;;;;;;;;;;;2096620;28;19931;-44
2022/03/27 00:42:56;;;;;;;;;;;;;;;;;;2096477;28;19943;-44
2022/03/27 00:43:58;;;;;;;;;;;;;;;;;;2096640;28;19924;-44
2022/03/27 00:44:58;;;;;;;;;;;;;;;;;;2097348;28;19924;-45
2022/03/27 00:46:00;;;;;;;;;;;;;;;;;;2095952;28;20682;-44
2022/03/27 00:47:01;;;;;;;;;;;;;;;;;;2096310;28;19924;-44
2022/03/27 00:48:02;;;;;;;;;;;;;;;;;;2096779;28;19933;-48
2022/03/27 00:49:03;;;;;;;;;;;;;;;;;;2096538;28;19925;-48
2022/03/27 00:50:04;;;;;;;;;;;;;;;;;;2096529;28;20712;-48
2022/03/27 00:51:05;;;;;;;;;;;;;;;;;;2096366;28;19932;-48
2022/03/27 00:52:06;;;;;;;;;;;;;;;;;;2096286;28;19978;-48
2022/03/27 00:53:08;;;;;;;;;;;;;;;;;;2096584;28;20385;-47
2022/03/27 00:54:09;;;;;;;;;;;;;;;;;;2097837;28;19924;-48
2022/03/27 00:55:10;;;;;;;;;;;;;;;;;;2096640;28;19978;-44
2022/03/27 00:56:11;;;;;;;;;;;;;;;;;;2095226;28;20340;-44
2022/03/27 00:57:12;;;;;;;;;;;;;;;;;;2096203;28;20097;-45
2022/03/27 00:58:13;;;;;;;;;;;;;;;;;;2097440;28;20414;-44
2022/03/27 00:59:14;;;;;;;;;;;;;;;;;;2097790;28;19930;-44
2022/03/27 01:00:16;;;;;;;;;;;;;;;;;;2098170;28;19924;-44
2022/03/27 01:01:17;;;;;;;;;;;;;;;;;;2098701;28;20358;-44
2022/03/27 01:02:18;;;;;;;;;;;;;;;;;;2099053;28;19932;-49
2022/03/27 01:03:20;;;;;;;;;;;;;;;;;;2098667;28;19925;-47
2022/03/27 01:04:21;;;;;;;;;;;;;;;;;;2098444;28;20340;-48
2022/03/27 01:05:22;;;;;;;;;;;;;;;;;;2097756;28;20328;-48
2022/03/27 01:06:23;;;;;;;;;;;;;;;;;;2097848;28;19936;-49
2022/03/27 01:07:24;;;;;;;;;;;;;;;;;;2097134;28;19925;-48
2022/03/27 01:09:45;;;;;;;;;;;;;;;;;;2096509;28;19929;-49
2022/03/27 01:10:46;;;;;;;;;;;;;;;;;;2097657;28;19936;-48
2022/03/27 01:11:47;;;;;;;;;;;;;;;;;;2097569;28;19928;-49
2022/03/27 01:12:48;;;;;;;;;;;;;;;;;;2098051;28;20019;-48
2022/03/27 01:13:49;;;;;;;;;;;;;;;;;;2096362;28;19924;-48
2022/03/27 01:14:50;;;;;;;;;;;;;;;;;;2098772;28;19935;-48
2022/03/27 01:15:50;;;;;;;;;;;;;;;;;;2098599;28;19924;-48
2022/03/27 01:16:52;;;;;;;;;;;;;;;;;;2098817;28;19924;-48
2022/03/27 01:17:53;;;;;;;;;;;;;;;;;;2099088;28;20300;-44
2022/03/27 01:18:54;;;;;;;;;;;;;;;;;;2098861;28;20014;-44
2022/03/27 01:19:55;;;;;;;;;;;;;;;;;;2098897;28;20263;-45
2022/03/27 01:20:56;;;;;;;;;;;;;;;;;;2099094;28;19931;-48
2022/03/27 01:21:57;;;;;;;;;;;;;;;;;;2098820;28;20008;-45
2022/03/27 01:22:59;;;;;;;;;;;;;;;;;;2098838;28;20007;-44
2022/03/27 01:23:59;;;;;;;;;;;;;;;;;;2099026;28;19924;-44
2022/03/27 01:25:01;;;;;;;;;;;;;;;;;;2098685;28;19974;-45
2022/03/27 01:26:03;;;;;;;;;;;;;;;;;;2098979;28;19928;-44
2022/03/27 01:27:04;;;;;;;;;;;;;;;;;;2099025;28;19947;-44
2022/03/27 01:28:05;;;;;;;;;;;;;;;;;;2098670;28;19925;-45
2022/03/27 01:29:06;;;;;;;;;;;;;;;;;;2099049;28;20435;-44
2022/03/27 01:30:07;;;;;;;;;;;;;;;;;;2098807;28;19974;-44
2022/03/27 01:31:08;;;;;;;;;;;;;;;;;;2098684;28;20010;-44
2022/03/27 01:32:11;;;;;;;;;;;;;;;;;;2098926;28;19929;-49
2022/03/27 01:33:13;;;;;;;;;;;;;;;;;;2098774;28;20293;-48
2022/03/27 01:34:14;;;;;;;;;;;;;;;;;;2098968;28;19928;-49
2022/03/27 01:35:15;;;;;;;;;;;;;;;;;;2098952;28;19932;-45
2022/03/27 01:36:16;;;;;;;;;;;;;;;;;;2098800;28;20032;-44
2022/03/27 01:37:17;;;;;;;;;;;;;;;;;;2098669;28;19928;-44
2022/03/27 01:38:18;;;;;;;;;;;;;;;;;;2099074;28;19925;-44
2022/03/27 01:39:19;;;;;;;;;;;;;;;;;;2098961;28;20382;-44
2022/03/27 01:40:20;;;;;;;;;;;;;;;;;;2098712;28;19924;-44
2022/03/27 01:41:21;;;;;;;;;;;;;;;;;;2098730;28;19932;-45
2022/03/27 01:42:22;;;;;;;;;;;;;;;;;;2098685;28;19924;-45
2022/03/27 01:43:24;;;;;;;;;;;;;;;;;;2098678;28;20008;-44
2022/03/27 01:44:24;;;;;;;;;;;;;;;;;;2098595;28;20335;-45
2022/03/27 01:45:27;;;;;;;;;;;;;;;;;;2098947;28;19925;-44
2022/03/27 01:46:28;;;;;;;;;;;;;;;;;;2098392;28;19931;-45
2022/03/27 01:47:29;;;;;;;;;;;;;;;;;;2098813;28;20297;-44
2022/03/27 01:48:30;;;;;;;;;;;;;;;;;;2098640;28;19925;-45
2022/03/27 01:49:32;;;;;;;;;;;;;;;;;;2098940;28;19986;-48
2022/03/27 01:50:32;;;;;;;;;;;;;;;;;;2098654;28;19925;-50
2022/03/27 01:51:34;;;;;;;;;;;;;;;;;;2098585;28;20392;-50
2022/03/27 01:52:35;;;;;;;;;;;;;;;;;;2098812;28;19931;-44
2022/03/27 01:53:36;;;;;;;;;;;;;;;;;;2098682;28;19925;-44
2022/03/27 01:54:37;;;;;;;;;;;;;;;;;;2098529;28;20381;-45
2022/03/27 01:55:38;;;;;;;;;;;;;;;;;;2098703;28;20225;-44
2022/03/27 01:56:40;;;;;;;;;;;;;;;;;;2098698;28;19931;-45
2022/03/27 01:57:42;;;;;;;;;;;;;;;;;;2098575;28;19929;-43
2022/03/27 01:58:43;;;;;;;;;;;;;;;;;;2098680;28;19925;-45
2022/03/27 01:59:44;;;;;;;;;;;;;;;;;;2098559;28;20286;-44
2022/03/27 02:00:46;;;;;;;;;;;;;;;;;;2098891;28;20011;-44
2022/03/27 02:01:47;;;;;;;;;;;;;;;;;;2098495;28;20386;-44
2022/03/27 02:02:48;;;;;;;;;;;;;;;;;;2098605;28;20313;-44
2022/03/27 02:03:49;;;;;;;;;;;;;;;;;;2098331;28;20266;-48
2022/03/27 02:04:50;;;;;;;;;;;;;;;;;;2098714;28;19925;-48
2022/03/27 02:05:52;;;;;;;;;;;;;;;;;;2098484;28;19925;-48
2022/03/27 02:06:52;;;;;;;;;;;;;;;;;;2098596;28;19929;-45
2022/03/27 02:07:54;;;;;;;;;;;;;;;;;;2098566;28;19971;-43
2022/03/27 02:08:55;;;;;;;;;;;;;;;;;;2098505;28;20293;-44
2022/03/27 02:09:56;;;;;;;;;;;;;;;;;;2098622;28;19970;-44
2022/03/27 02:10:57;;;;;;;;;;;;;;;;;;2098447;28;20309;-45
2022/03/27 02:11:58;;;;;;;;;;;;;;;;;;2098571;28;19967;-45
2022/03/27 02:12:59;;;;;;;;;;;;;;;;;;2098630;28;19983;-44
2022/03/27 02:14:00;;;;;;;;;;;;;;;;;;2098594;28;19925;-48
2022/03/27 02:15:01;;;;;;;;;;;;;;;;;;2098764;28;19924;-44
2022/03/27 02:16:03;;;;;;;;;;;;;;;;;;2098736;28;19925;-44
2022/03/27 02:17:05;;;;;;;;;;;;;;;;;;2098540;28;19924;-44
2022/03/27 02:18:05;;;;;;;;;;;;;;;;;;2098625;28;19924;-45
2022/03/27 02:19:09;;;;;;;;;;;;;;;;;;2098808;28;19931;-45
2022/03/27 02:20:10;;;;;;;;;;;;;;;;;;2098278;28;19951;-44
2022/03/27 02:21:11;;;;;;;;;;;;;;;;;;2098952;28;19932;-45
2022/03/27 02:22:12;;;;;;;;;;;;;;;;;;2098426;28;19932;-45
2022/03/27 02:23:13;;;;;;;;;;;;;;;;;;2098268;28;19925;-44
2022/03/27 02:24:14;;;;;;;;;;;;;;;;;;2098085;28;19932;-45
2022/03/27 02:25:16;;;;;;;;;;;;;;;;;;2098404;28;19947;-44
2022/03/27 02:26:17;;;;;;;;;;;;;;;;;;2098218;28;19936;-44
2022/03/27 02:27:18;;;;;;;;;;;;;;;;;;2098929;28;19924;-44
2022/03/27 02:28:19;;;;;;;;;;;;;;;;;;2098380;28;20156;-45
2022/03/27 02:29:20;;;;;;;;;;;;;;;;;;2098498;28;19924;-45
2022/03/27 02:30:21;;;;;;;;;;;;;;;;;;2098480;28;20289;-45
2022/03/27 02:31:22;;;;;;;;;;;;;;;;;;2097724;28;19925;-45
2022/03/27 02:32:23;;;;;;;;;;;;;;;;;;2098382;28;19940;-44
2022/03/27 02:33:24;;;;;;;;;;;;;;;;;;2098550;28;19975;-48
2022/03/27 02:34:26;;;;;;;;;;;;;;;;;;2098489;28;19924;-49
2022/03/27 02:35:27;;;;;;;;;;;;;;;;;;2098246;28;19931;-49
2022/03/27 02:36:28;;;;;;;;;;;;;;;;;;2098302;28;19924;-49
2022/03/27 02:37:29;;;;;;;;;;;;;;;;;;2098571;28;20487;-48
2022/03/27 02:38:30;;;;;;;;;;;;;;;;;;2097704;28;20377;-47
2022/03/27 02:39:31;;;;;;;;;;;;;;;;;;2098505;28;19968;-48
2022/03/27 02:40:32;;;;;;;;;;;;;;;;;;2098260;28;20482;-48
2022/03/27 02:41:33;;;;;;;;;;;;;;;;;;2098193;28;19924;-50
2022/03/27 02:42:34;;;;;;;;;;;;;;;;;;2098363;28;19931;-48
2022/03/27 02:43:38;;;;;;;;;;;;;;;;;;2099171;28;19924;-45
2022/03/27 02:44:39;;;;;;;;;;;;;;;;;;2098945;28;19932;-44
2022/03/27 02:45:40;;;;;;;;;;;;;;;;;;2098405;28;20353;-45
2022/03/27 02:46:41;;;;;;;;;;;;;;;;;;2098408;28;19924;-49
2022/03/27 02:47:42;;;;;;;;;;;;;;;;;;2098095;28;20313;-48
2022/03/27 02:48:43;;;;;;;;;;;;;;;;;;2098195;28;19998;-50
2022/03/27 02:49:44;;;;;;;;;;;;;;;;;;2098372;28;19924;-48
2022/03/27 02:50:47;;;;;;;;;;;;;;;;;;2097968;28;20304;-48
2022/03/27 02:51:47;;;;;;;;;;;;;;;;;;2098621;28;20439;-44
2022/03/27 02:52:48;;;;;;;;;;;;;;;;;;2098123;28;19954;-44
2022/03/27 02:53:49;;;;;;;;;;;;;;;;;;2098067;28;19928;-45
2022/03/27 02:54:50;;;;;;;;;;;;;;;;;;2098161;28;19924;-44
2022/03/27 02:55:51;;;;;;;;;;;;;;;;;;2098196;28;19924;-45
2022/03/27 02:56:53;;;;;;;;;;;;;;;;;;2098306;28;19975;-49
2022/03/27 02:57:53;;;;;;;;;;;;;;;;;;2098472;28;19978;-48
2022/03/27 02:58:54;;;;;;;;;;;;;;;;;;2098457;28;20337;-45
2022/03/27 02:59:55;;;;;;;;;;;;;;;;;;2098262;28;19924;-44
2022/03/27 03:00:56;;;;;;;;;;;;;;;;;;2098217;28;20066;-44
2022/03/27 03:01:57;;;;;;;;;;;;;;;;;;2097892;28;19928;-44
2022/03/27 03:02:59;;;;;;;;;;;;;;;;;;2097840;28;19954;-44
2022/03/27 03:04:01;;;;;;;;;;;;;;;;;;2098184;28;19924;-44
2022/03/27 03:05:03;;;;;;;;;;;;;;;;;;2098243;28;19960;-45
2022/03/27 03:06:05;;;;;;;;;;;;;;;;;;2098391;28;19925;-44
2022/03/27 03:07:06;;;;;;;;;;;;;;;;;;2098182;28;20406;-45
2022/03/27 03:08:11;;;;;;;;;;;;;;;;;;2098359;28;19928;-45
2022/03/27 03:09:12;;;;;;;;;;;;;;;;;;2098183;28;19929;-45
2022/03/27 03:10:14;;;;;;;;;;;;;;;;;;2098250;28;19924;-45
2022/03/27 03:11:15;;;;;;;;;;;;;;;;;;2098000;28;20382;-45
2022/03/27 03:12:16;;;;;;;;;;;;;;;;;;2098175;28;19924;-45
2022/03/27 03:13:17;;;;;;;;;;;;;;;;;;2098323;28;19954;-44
2022/03/27 03:14:18;;;;;;;;;;;;;;;;;;2098111;28;19946;-45
2022/03/27 03:15:27;;;;;;;;;;;;;;;;;;2098098;28;20415;-44
2022/03/27 03:16:28;;;;;;;;;;;;;;;;;;2098013;28;19943;-44
2022/03/27 03:17:30;;;;;;;;;;;;;;;;;;2098141;28;19924;-45
2022/03/27 03:18:31;;;;;;;;;;;;;;;;;;2098196;28;19924;-44
2022/03/27 03:19:32;;;;;;;;;;;;;;;;;;2098442;28;19948;-45
2022/03/27 03:20:32;;;;;;;;;;;;;;;;;;2097311;28;20270;-45
2022/03/27 03:21:34;;;;;;;;;;;;;;;;;;2097973;28;19950;-45
2022/03/27 03:22:35;;;;;;;;;;;;;;;;;;2098099;28;19974;-44
2022/03/27 03:23:36;;;;;;;;;;;;;;;;;;2098087;28;20354;-44
2022/03/27 03:24:37;;;;;;;;;;;;;;;;;;2098251;28;19928;-49
2022/03/27 03:25:38;;;;;;;;;;;;;;;;;;2098691;28;20130;-49
2022/03/27 03:27:00;;;;;;;;;;;;;;;;;;2098017;28;19963;-49
2022/03/27 03:28:01;;;;;;;;;;;;;;;;;;2098043;28;19925;-48
2022/03/27 03:29:02;;;;;;;;;;;;;;;;;;2098518;28;19924;-49
2022/03/27 03:30:03;;;;;;;;;;;;;;;;;;2097981;28;19925;-49
2022/03/27 03:31:05;;;;;;;;;;;;;;;;;;2097950;28;19931;-50
2022/03/27 03:32:06;;;;;;;;;;;;;;;;;;2098002;28;19925;-48
2022/03/27 03:33:07;;;;;;;;;;;;;;;;;;2098266;28;19974;-45
2022/03/27 03:34:08;;;;;;;;;;;;;;;;;;2097971;28;19932;-44
2022/03/27 03:35:10;;;;;;;;;;;;;;;;;;2097977;28;19925;-45
2022/03/27 03:36:27;;;;;;;;;;;;;;;;;;2097679;28;20019;-45
2022/03/27 03:37:28;;;;;;;;;;;;;;;;;;2097972;28;19935;-44
2022/03/27 03:38:29;;;;;;;;;;;;;;;;;;2098001;28;19924;-45
2022/03/27 03:39:30;;;;;;;;;;;;;;;;;;2098268;28;19924;-44
2022/03/27 03:40:31;;;;;;;;;;;;;;;;;;2098402;28;19925;-49
2022/03/27 03:41:32;;;;;;;;;;;;;;;;;;2098061;28;19978;-48
2022/03/27 03:42:53;;;;;;;;;;;;;;;;;;2097900;28;20058;-48
2022/03/27 03:43:54;;;;;;;;;;;;;;;;;;2098167;28;19924;-48
2022/03/27 03:44:55;;;;;;;;;;;;;;;;;;2098216;28;19924;-44
2022/03/27 03:45:56;;;;;;;;;;;;;;;;;;2097994;28;19925;-45
2022/03/27 03:46:57;;;;;;;;;;;;;;;;;;2097659;28;20110;-45
2022/03/27 03:47:59;;;;;;;;;;;;;;;;;;2097948;28;19932;-44
2022/03/27 03:49:00;;;;;;;;;;;;;;;;;;2098410;28;20547;-44
2022/03/27 03:50:01;;;;;;;;;;;;;;;;;;2097934;28;19924;-44
2022/03/27 03:51:02;;;;;;;;;;;;;;;;;;2098059;28;19932;-44
2022/03/27 03:52:03;;;;;;;;;;;;;;;;;;2097855;28;20396;-44
2022/03/27 03:53:04;;;;;;;;;;;;;;;;;;2098175;28;19928;-44
2022/03/27 03:54:07;;;;;;;;;;;;;;;;;;2097951;28;20286;-45
2022/03/27 03:55:08;;;;;;;;;;;;;;;;;;2098452;28;19925;-45
2022/03/27 03:56:09;;;;;;;;;;;;;;;;;;2097607;28;19929;-45
2022/03/27 03:57:11;;;;;;;;;;;;;;;;;;2097880;28;19925;-45
2022/03/27 03:58:11;;;;;;;;;;;;;;;;;;2098145;28;19924;-45
2022/03/27 03:59:13;;;;;;;;;;;;;;;;;;2097884;28;19924;-45
2022/03/27 04:00:30;;;;;;;;;;;;;;;;;;2097839;28;19929;-48
2022/03/27 04:01:31;;;;;;;;;;;;;;;;;;2098195;28;19924;-45
2022/03/27 04:02:33;;;;;;;;;;;;;;;;;;2097895;28;20372;-44
2022/03/27 04:03:34;;;;;;;;;;;;;;;;;;2097809;28;19950;-44
2022/03/27 04:04:35;;;;;;;;;;;;;;;;;;2096890;28;20017;-49
2022/03/27 04:05:36;;;;;;;;;;;;;;;;;;2097784;28;19947;-48
2022/03/27 04:06:37;;;;;;;;;;;;;;;;;;2097596;28;19947;-48
2022/03/27 04:07:38;;;;;;;;;;;;;;;;;;2097740;28;19963;-49
2022/03/27 04:08:39;;;;;;;;;;;;;;;;;;2098153;28;19924;-44
2022/03/27 04:09:40;;;;;;;;;;;;;;;;;;2098023;28;19924;-49
2022/03/27 04:10:41;;;;;;;;;;;;;;;;;;2097674;28;20336;-50
2022/03/27 04:11:43;;;;;;;;;;;;;;;;;;2097894;28;19924;-44
2022/03/27 04:12:44;;;;;;;;;;;;;;;;;;2097825;28;19924;-44
2022/03/27 04:13:45;;;;;;;;;;;;;;;;;;2097984;28;19928;-44
2022/03/27 04:14:46;;;;;;;;;;;;;;;;;;2097916;28;19924;-49
2022/03/27 04:15:47;;;;;;;;;;;;;;;;;;2097499;28;19932;-48
2022/03/27 04:16:56;;;;;;;;;;;;;;;;;;2096475;28;20027;-49
2022/03/27 04:18:00;;;;;;;;;;;;;;;;;;2096248;28;19999;-48
2022/03/27 04:19:01;;;;;;;;;;;;;;;;;;2098073;28;19925;-48
2022/03/27 04:20:02;;;;;;;;;;;;;;;;;;2097619;28;19939;-48
2022/03/27 04:21:03;;;;;;;;;;;;;;;;;;2097973;28;19924;-44
2022/03/27 04:22:04;;;;;;;;;;;;;;;;;;2097800;28;19958;-44
2022/03/27 04:23:05;;;;;;;;;;;;;;;;;;2097616;28;19925;-44
2022/03/27 04:24:06;;;;;;;;;;;;;;;;;;2097727;28;20011;-44
2022/03/27 04:25:07;;;;;;;;;;;;;;;;;;2097640;28;19932;-44
2022/03/27 04:26:08;;;;;;;;;;;;;;;;;;2097547;28;19943;-45
2022/03/27 04:27:09;;;;;;;;;;;;;;;;;;2098064;28;19982;-45
2022/03/27 04:28:10;;;;;;;;;;;;;;;;;;2097638;28;19932;-44
2022/03/27 04:29:11;;;;;;;;;;;;;;;;;;2097997;28;19924;-49
2022/03/27 04:30:12;;;;;;;;;;;;;;;;;;2097092;28;19925;-48
2022/03/27 04:31:14;;;;;;;;;;;;;;;;;;2097531;28;19926;-44
2022/03/27 04:32:15;;;;;;;;;;;;;;;;;;2099150;28;19986;-48
2022/03/27 04:33:16;;;;;;;;;;;;;;;;;;2098928;28;20369;-48
2022/03/27 04:34:17;;;;;;;;;;;;;;;;;;2098869;28;19924;-49
2022/03/27 04:35:18;;;;;;;;;;;;;;;;;;2098603;28;19928;-50
2022/03/27 04:36:19;;;;;;;;;;;;;;;;;;2097083;28;19925;-49
2022/03/27 04:37:22;;;;;;;;;;;;;;;;;;2098934;28;19924;-49
2022/03/27 04:38:24;;;;;;;;;;;;;;;;;;2100857;28;19928;-45
2022/03/27 04:39:25;;;;;;;;;;;;;;;;;;2099566;28;19946;-44
2022/03/27 04:40:26;;;;;;;;;;;;;;;;;;2099494;28;19928;-45
2022/03/27 04:41:28;;;;;;;;;;;;;;;;;;2098932;28;20374;-44
2022/03/27 04:42:28;;;;;;;;;;;;;;;;;;2099201;28;19931;-49
2022/03/27 04:43:30;;;;;;;;;;;;;;;;;;2099027;28;19924;-47
2022/03/27 04:44:30;;;;;;;;;;;;;;;;;;2098079;28;19971;-46
2022/03/27 04:45:32;;;;;;;;;;;;;;;;;;2098048;28;20321;-47
2022/03/27 04:46:33;;;;;;;;;;;;;;;;;;2096798;28;19925;-43
2022/03/27 04:47:34;;;;;;;;;;;;;;;;;;2098442;28;20010;-43
2022/03/27 04:48:35;;;;;;;;;;;;;;;;;;2097741;28;19932;-43
2022/03/27 04:49:37;;;;;;;;;;;;;;;;;;2098121;28;19925;-43
2022/03/27 04:50:38;;;;;;;;;;;;;;;;;;2096882;28;19928;-43
2022/03/27 04:51:39;;;;;;;;;;;;;;;;;;2098297;28;20274;-43
2022/03/27 04:52:40;;;;;;;;;;;;;;;;;;2098769;28;19949;-43
2022/03/27 04:53:41;;;;;;;;;;;;;;;;;;2099421;28;19950;-43
2022/03/27 04:54:42;;;;;;;;;;;;;;;;;;2098594;28;20290;-43
2022/03/27 04:55:43;;;;;;;;;;;;;;;;;;2098767;28;19972;-43
2022/03/27 04:56:44;;;;;;;;;;;;;;;;;;2099025;28;19924;-43
2022/03/27 04:57:45;;;;;;;;;;;;;;;;;;2098877;28;20408;-43
2022/03/27 04:58:46;;;;;;;;;;;;;;;;;;2099143;28;19924;-47
2022/03/27 04:59:47;;;;;;;;;;;;;;;;;;2098920;28;20112;-47
2022/03/27 05:00:49;;;;;;;;;;;;;;;;;;2099007;28;19928;-46
2022/03/27 05:01:50;;;;;;;;;;;;;;;;;;2098566;28;19928;-46
2022/03/27 05:02:51;;;;;;;;;;;;;;;;;;2099034;28;19925;-47
2022/03/27 05:03:52;;;;;;;;;;;;;;;;;;2099690;28;20418;-50
2022/03/27 05:04:56;;;;;;;;;;;;;;;;;;2099803;28;19935;-43
2022/03/27 05:05:58;;;;;;;;;;;;;;;;;;2100809;28;19925;-47
2022/03/27 05:06:59;;;;;;;;;;;;;;;;;;2100787;28;19924;-47
2022/03/27 05:08:01;;;;;;;;;;;;;;;;;;2100537;28;20416;-43
2022/03/27 05:09:02;;;;;;;;;;;;;;;;;;2098675;28;19924;-43
2022/03/27 05:10:03;;;;;;;;;;;;;;;;;;2098554;28;19962;-43
2022/03/27 05:11:06;;;;;;;;;;;;;;;;;;2097831;28;20419;-43
2022/03/27 05:12:07;;;;;;;;;;;;;;;;;;2097999;28;19928;-47
2022/03/27 05:13:08;;;;;;;;;;;;;;;;;;2097964;28;20392;-43
2022/03/27 05:14:11;;;;;;;;;;;;;;;;;;2098623;28;20058;-43
2022/03/27 05:15:11;;;;;;;;;;;;;;;;;;2099316;28;19912;-47
2022/03/27 05:16:13;;;;;;;;;;;;;;;;;;2099064;28;19925;-46
2022/03/27 05:17:14;;;;;;;;;;;;;;;;;;2098736;28;19936;-47
2022/03/27 05:18:15;;;;;;;;;;;;;;;;;;2098725;28;20490;-49
2022/03/27 05:19:16;;;;;;;;;;;;;;;;;;2099908;28;19954;-43
2022/03/27 05:20:17;;;;;;;;;;;;;;;;;;2099467;28;20370;-48
2022/03/27 05:21:18;;;;;;;;;;;;;;;;;;2099169;28;20397;-43
2022/03/27 05:22:19;;;;;;;;;;;;;;;;;;2098501;28;19924;-43
2022/03/27 05:23:21;;;;;;;;;;;;;;;;;;2098784;28;19931;-43
2022/03/27 05:24:22;;;;;;;;;;;;;;;;;;2098754;28;19932;-43
2022/03/27 05:25:23;;;;;;;;;;;;;;;;;;2090880;28;19925;-43
2022/03/27 05:26:24;;;;;;;;;;;;;;;;;;2090808;28;19928;-45
2022/03/27 05:27:25;;;;;;;;;;;;;;;;;;2091156;28;19986;-46
2022/03/27 05:28:26;;;;;;;;;;;;;;;;;;2098238;28;19932;-44
2022/03/27 05:29:27;;;;;;;;;;;;;;;;;;2099400;28;19935;-44
2022/03/27 05:30:29;;;;;;;;;;;;;;;;;;2099437;28;20230;-47
2022/03/27 05:31:30;;;;;;;;;;;;;;;;;;2098910;28;19951;-48
2022/03/27 05:32:31;;;;;;;;;;;;;;;;;;2095445;28;19933;-47
2022/03/27 05:33:32;;;;;;;;;;;;;;;;;;2090723;28;19924;-44
2022/03/27 05:34:34;;;;;;;;;;;;;;;;;;2094602;28;19931;-44
2022/03/27 05:35:35;;;;;;;;;;;;;;;;;;2098696;28;19943;-44
2022/03/27 05:36:37;;;;;;;;;;;;;;;;;;2098990;28;19936;-45
2022/03/27 05:37:38;;;;;;;;;;;;;;;;;;2098703;28;19924;-43
2022/03/27 05:38:39;;;;;;;;;;;;;;;;;;2099041;28;19924;-38
2022/03/27 05:39:40;;;;;;;;;;;;;;;;;;2098879;28;19924;-41
2022/03/27 05:40:41;;;;;;;;;;;;;;;;;;2098972;28;19924;-47
2022/03/27 05:41:42;;;;;;;;;;;;;;;;;;2098711;28;19924;-48
2022/03/27 05:42:43;;;;;;;;;;;;;;;;;;2098709;28;19925;-47
2022/03/27 05:43:44;;;;;;;;;;;;;;;;;;2098117;28;19924;-47
2022/03/27 05:44:46;;;;;;;;;;;;;;;;;;2099113;28;20019;-44
2022/03/27 05:45:48;;;;;;;;;;;;;;;;;;2098978;28;20490;-47
2022/03/27 05:46:49;;;;;;;;;;;;;;;;;;2098620;28;19925;-46
2022/03/27 05:47:50;;;;;;;;;;;;;;;;;;2098654;28;20376;-47
2022/03/27 05:48:52;;;;;;;;;;;;;;;;;;2098896;28;19924;-47
2022/03/27 05:49:53;;;;;;;;;;;;;;;;;;2099035;28;19936;-48
2022/03/27 05:50:54;;;;;;;;;;;;;;;;;;2098903;28;19955;-48
2022/03/27 05:51:55;;;;;;;;;;;;;;;;;;2098596;28;19932;-44
2022/03/27 05:52:56;;;;;;;;;;;;;;;;;;2099328;28;19924;-47
2022/03/27 05:53:57;;;;;;;;;;;;;;;;;;2099000;28;19928;-44
2022/03/27 05:54:58;;;;;;;;;;;;;;;;;;2100457;28;19924;-44
2022/03/27 05:56:00;;;;;;;;;;;;;;;;;;2099858;28;19924;-47
2022/03/27 05:57:01;;;;;;;;;;;;;;;;;;2099510;28;19959;-43
2022/03/27 05:58:02;;;;;;;;;;;;;;;;;;2099114;28;19928;-44
2022/03/27 05:59:03;;;;;;;;;;;;;;;;;;2099272;28;20366;-47
2022/03/27 06:00:06;;;;;;;;;;;;;;;;;;2099377;28;19948;-43
2022/03/27 06:01:08;;;;;;;;;;;;;;;;;;2099938;28;20436;-50
2022/03/27 06:02:10;;;;;;;;;;;;;;;;;;2100803;28;19978;-44
2022/03/27 06:03:11;;;;;;;;;;;;;;;;;;2101941;28;19980;-50
2022/03/27 06:04:13;;;;;;;;;;;;;;;;;;2102052;28;19924;-48
2022/03/27 06:05:14;;;;;;;;;;;;;;;;;;2100118;28;20454;-44
2022/03/27 06:06:15;;;;;;;;;;;;;;;;;;2099595;28;19970;-48
2022/03/27 06:07:16;;;;;;;;;;;;;;;;;;2099540;28;20447;-47
2022/03/27 06:08:17;;;;;;;;;;;;;;;;;;2098857;28;20286;-47
2022/03/27 06:09:18;;;;;;;;;;;;;;;;;;2099201;28;19924;-44
2022/03/27 06:10:20;;;;;;;;;;;;;;;;;;2098765;28;19924;-43
2022/03/27 06:11:20;;;;;;;;;;;;;;;;;;2098977;28;20286;-44
2022/03/27 06:12:22;;;;;;;;;;;;;;;;;;2099101;28;20190;-47
2022/03/27 06:13:24;;;;;;;;;;;;;;;;;;2099639;28;19928;-43
2022/03/27 06:14:25;;;;;;;;;;;;;;;;;;2099599;28;19992;-51
2022/03/27 06:15:26;;;;;;;;;;;;;;;;;;2098462;28;19947;-47
2022/03/27 06:16:27;;;;;;;;;;;;;;;;;;2098051;28;19993;-49
2022/03/27 06:17:29;;;;;;;;;;;;;;;;;;2098751;28;20381;-44
2022/03/27 06:18:30;;;;;;;;;;;;;;;;;;2098936;28;19931;-43
2022/03/27 06:19:31;;;;;;;;;;;;;;;;;;2098868;28;19994;-44
2022/03/27 06:20:32;;;;;;;;;;;;;;;;;;2098756;28;20019;-49
2022/03/27 06:21:33;;;;;;;;;;;;;;;;;;2099149;28;19946;-44
2022/03/27 06:22:35;;;;;;;;;;;;;;;;;;2098309;28;20378;-54
2022/03/27 06:23:36;;;;;;;;;;;;;;;;;;2091393;28;19996;-50
2022/03/27 06:24:38;;;;;;;;;;;;;;;;;;2096052;28;19924;-45
2022/03/27 06:25:40;;;;;;;;;;;;;;;;;;2099387;28;19954;-51
2022/03/27 06:26:41;;;;;;;;;;;;;;;;;;2098897;28;19988;-44
2022/03/27 06:27:42;;;;;;;;;;;;;;;;;;2099851;28;19982;-57
2022/03/27 06:28:43;;;;;;;;;;;;;;;;;;2098326;28;20373;-57
2022/03/27 06:29:44;;;;;;;;;;;;;;;;;;2098802;28;19932;-44
2022/03/27 06:30:46;;;;;;;;;;;;;;;;;;2098661;28;19924;-56
2022/03/27 06:31:48;;;;;;;;;;;;;;;;;;2098784;28;20003;-45
2022/03/27 06:32:49;;;;;;;;;;;;;;;;;;2098811;28;19925;-46
2022/03/27 06:33:50;;;;;;;;;;;;;;;;;;2099688;28;19932;-54
2022/03/27 06:34:51;;;;;;;;;;;;;;;;;;2099521;28;19935;-51
2022/03/27 06:35:52;;;;;;;;;;;;;;;;;;2098520;28;20293;-51
2022/03/27 06:36:53;;;;;;;;;;;;;;;;;;2098255;28;19928;-54
2022/03/27 06:37:55;;;;;;;;;;;;;;;;;;2097976;28;19924;-56
2022/03/27 06:38:56;;;;;;;;;;;;;;;;;;2098837;28;19924;-45
2022/03/27 06:39:58;;;;;;;;;;;;;;;;;;2098476;28;19980;-52
2022/03/27 06:40:59;;;;;;;;;;;;;;;;;;2098560;28;19928;-54
2022/03/27 06:41:59;;;;;;;;;;;;;;;;;;2098439;28;20365;-46
2022/03/27 06:43:01;;;;;;;;;;;;;;;;;;2098474;28;19925;-52
2022/03/27 06:44:02;;;;;;;;;;;;;;;;;;2095147;28;19932;-46
2022/03/27 06:45:03;;;;;;;;;;;;;;;;;;2098397;28;19924;-54
2022/03/27 06:46:05;;;;;;;;;;;;;;;;;;2098305;28;19924;-54
2022/03/27 06:47:08;;;;;;;;;;;;;;;;;;2098315;28;19924;-47
2022/03/27 06:48:10;;;;;;;;;;;;;;;;;;2098992;28;20274;-52
2022/03/27 06:49:12;;;;;;;;;;;;;;;;;;2098294;28;19924;-51
2022/03/27 06:50:13;;;;;;;;;;;;;;;;;;2098612;28;19925;-48
2022/03/27 06:51:15;;;;;;;;;;;;;;;;;;2098688;28;20014;-52
2022/03/27 06:52:16;;;;;;;;;;;;;;;;;;2098409;28;20420;-46
2022/03/27 06:53:20;;;;;;;;;;;;;;;;;;2098931;28;20041;-45
2022/03/27 06:54:21;;;;;;;;;;;;;;;;;;2099107;28;20243;-49
2022/03/27 06:55:23;;;;;;;;;;;;;;;;;;2098043;28;19924;-43
2022/03/27 06:56:23;;;;;;;;;;;;;;;;;;2098337;28;20421;-52
2022/03/27 06:57:25;;;;;;;;;;;;;;;;;;2099222;28;19925;-51
2022/03/27 06:58:26;;;;;;;;;;;;;;;;;;2098794;28;19973;-44
2022/03/27 06:59:27;;;;;;;;;;;;;;;;;;2098460;28;19933;-44
2022/03/27 07:03:12;;;;;;;;;;;;;;;;;;2099110;28;19936;-44
2022/03/27 07:04:14;;;;;;;;;;;;;;;;;;2099218;28;19966;-49
2022/03/27 07:05:16;;;;;;;;;;;;;;;;;;2098458;28;19930;-44